Time;durP1;ratioP1;P1;durP2;ratioP2;P2;SDS_P1;SDS_P2;PMS_P1;PMS_P2;Temp;Humidity;BMP_temperature;BMP_pressure;BME280_temperature;BME280_humidity;BME280_pressure;Samples;Min_cycle;Max_cycle;Signal;HPM_P1;HPM_P2
2023/02/25 00:01:11;;;;;;;2.90;2.37;;;6.20;99.90;;;;;;4926190;28;20474;-70
2023/02/25 00:03:37;;;;;;;1.80;1.47;;;6.10;99.90;;;;;;4906130;28;20477;-69
2023/02/25 00:06:04;;;;;;;3.33;1.80;;;6.20;99.90;;;;;;4911814;29;20561;-69
2023/02/25 00:08:30;;;;;;;2.30;1.70;;;6.20;99.90;;;;;;4922014;28;20466;-70
2023/02/25 00:11:00;;;;;;;4.03;2.40;;;6.10;99.90;;;;;;4922443;29;20889;-70
2023/02/25 00:13:27;;;;;;;2.70;1.40;;;6.10;99.90;;;;;;4908948;29;20306;-69
2023/02/25 00:15:53;;;;;;;5.00;2.20;;;6.10;99.90;;;;;;4913147;28;20532;-68
2023/02/25 00:18:19;;;;;;;3.87;1.70;;;6.00;99.90;;;;;;4908899;29;20514;-70
2023/02/25 00:20:45;;;;;;;3.07;2.20;;;5.90;99.90;;;;;;4913374;28;20482;-68
2023/02/25 00:23:10;;;;;;;4.20;1.97;;;5.80;99.90;;;;;;4942322;28;20218;-70
2023/02/25 00:25:36;;;;;;;3.47;1.90;;;5.70;99.90;;;;;;4919095;28;20223;-70
2023/02/25 00:28:05;;;;;;;5.73;2.77;;;5.80;99.90;;;;;;4920613;29;20236;-69
2023/02/25 00:30:31;;;;;;;5.87;2.40;;;5.80;99.90;;;;;;4900944;29;20246;-69
2023/02/25 00:32:57;;;;;;;2.40;1.83;;;5.80;99.90;;;;;;4942049;28;20503;-71
2023/02/25 00:35:23;;;;;;;5.00;2.30;;;5.80;99.90;;;;;;4924264;29;20498;-69
2023/02/25 00:37:52;;;;;;;7.17;2.70;;;5.70;99.90;;;;;;4916798;29;20232;-70
2023/02/25 00:40:18;;;;;;;5.43;2.23;;;5.80;99.90;;;;;;4917488;29;20491;-69
2023/02/25 00:42:43;;;;;;;5.63;3.07;;;5.70;99.90;;;;;;4916251;29;20471;-70
2023/02/25 00:45:10;;;;;;;2.60;1.90;;;5.70;99.90;;;;;;4917467;29;20666;-69
2023/02/25 00:47:36;;;;;;;5.10;2.30;;;5.70;99.90;;;;;;4914542;29;20606;-70
2023/02/25 00:50:04;;;;;;;5.00;2.23;;;5.70;99.90;;;;;;4916041;28;20920;-70
2023/02/25 00:52:31;;;;;;;3.90;2.40;;;5.60;99.90;;;;;;4921111;28;20483;-69
2023/02/25 00:54:56;;;;;;;3.97;1.83;;;5.40;99.90;;;;;;4914790;29;20482;-70
2023/02/25 00:57:22;;;;;;;4.60;2.90;;;5.30;99.90;;;;;;4940027;28;20467;-69
2023/02/25 00:59:49;;;;;;;4.17;2.60;;;5.20;99.90;;;;;;4920920;29;20244;-70
2023/02/25 01:02:14;;;;;;;4.87;2.23;;;5.30;99.90;;;;;;4928944;29;20253;-70
2023/02/25 01:04:40;;;;;;;3.50;1.93;;;5.30;99.90;;;;;;4943741;28;20481;-69
2023/02/25 01:07:06;;;;;;;5.33;2.10;;;5.30;99.90;;;;;;4921093;29;20993;-68
2023/02/25 01:09:32;;;;;;;7.67;3.07;;;5.10;99.90;;;;;;4920715;29;20231;-69
2023/02/25 01:11:58;;;;;;;7.13;2.80;;;5.00;99.90;;;;;;4924311;29;20737;-69
2023/02/25 01:14:25;;;;;;;3.87;2.67;;;4.80;99.90;;;;;;4911109;29;20222;-70
2023/02/25 01:16:51;;;;;;;6.30;2.87;;;4.90;99.90;;;;;;4920311;29;20278;-70
2023/02/25 01:19:20;;;;;;;8.80;2.23;;;4.70;99.90;;;;;;4912449;29;20483;-70
2023/02/25 01:21:50;;;;;;;6.23;2.53;;;4.70;99.90;;;;;;4910166;29;20471;-67
2023/02/25 01:24:24;;;;;;;4.63;2.13;;;4.90;99.90;;;;;;4921899;29;20481;-69
2023/02/25 01:26:56;;;;;;;3.30;2.03;;;4.90;99.90;;;;;;4925628;28;20562;-69
2023/02/25 01:29:27;;;;;;;1.93;1.70;;;4.80;99.90;;;;;;4918589;29;21018;-70
2023/02/25 01:31:55;;;;;;;2.60;1.60;;;4.90;99.90;;;;;;4913363;29;20545;-69
2023/02/25 01:34:22;;;;;;;2.63;1.63;;;4.60;99.90;;;;;;4905236;29;20981;-70
2023/02/25 01:36:48;;;;;;;1.80;1.50;;;4.60;99.90;;;;;;4921912;28;21055;-70
2023/02/25 01:39:17;;;;;;;4.27;1.70;;;4.70;99.90;;;;;;4926641;28;20554;-70
2023/02/25 01:41:45;;;;;;;5.83;2.40;;;4.80;99.90;;;;;;4925212;28;20210;-70
2023/02/25 01:44:15;;;;;;;7.40;1.40;;;4.80;99.90;;;;;;4910902;29;20477;-70
2023/02/25 01:46:43;;;;;;;4.63;1.63;;;4.90;99.90;;;;;;4912337;28;20532;-69
2023/02/25 01:49:20;;;;;;;6.77;1.13;;;5.00;99.90;;;;;;4927379;28;20466;-70
2023/02/25 01:51:49;;;;;;;3.60;1.27;;;5.30;99.90;;;;;;4947407;28;20476;-70
2023/02/25 01:54:16;;;;;;;7.60;1.73;;;5.40;99.90;;;;;;4930913;29;20467;-70
2023/02/25 01:56:47;;;;;;;2.23;1.33;;;5.50;99.90;;;;;;4931487;28;20469;-70
2023/02/25 01:59:14;;;;;;;3.30;1.50;;;5.60;99.90;;;;;;4931446;29;20466;-70
2023/02/25 02:01:41;;;;;;;5.63;1.40;;;5.60;99.90;;;;;;4924034;28;20481;-69
2023/02/25 02:04:10;;;;;;;2.27;1.77;;;5.60;99.90;;;;;;4918294;29;20472;-70
2023/02/25 02:06:42;;;;;;;3.30;1.50;;;5.60;99.90;;;;;;4921849;29;20483;-70
2023/02/25 02:09:12;;;;;;;4.07;1.20;;;5.60;99.90;;;;;;4942986;28;20466;-70
2023/02/25 02:11:39;;;;;;;5.20;1.50;;;5.60;99.90;;;;;;4924783;28;20463;-70
2023/02/25 02:14:06;;;;;;;1.90;1.00;;;5.60;99.90;;;;;;4932690;29;20473;-70
2023/02/25 02:16:53;;;;;;;3.20;1.60;;;5.50;99.90;;;;;;4932990;29;20223;-70
2023/02/25 02:19:31;;;;;;;6.30;2.40;;;5.60;99.90;;;;;;4923554;29;20471;-70
2023/02/25 02:22:02;;;;;;;4.37;1.50;;;5.60;99.90;;;;;;4920409;28;20540;-70
2023/02/25 02:24:39;;;;;;;5.43;1.47;;;5.60;99.90;;;;;;4926923;29;20529;-70
2023/02/25 02:27:20;;;;;;;2.10;1.37;;;5.50;99.90;;;;;;4940733;28;20478;-69
2023/02/25 02:30:02;;;;;;;1.23;1.10;;;5.30;99.90;;;;;;4922928;29;20470;-69
2023/02/25 02:32:34;;;;;;;5.43;2.60;;;5.30;99.90;;;;;;4930220;29;20502;-70
2023/02/25 02:35:08;;;;;;;7.57;1.33;;;5.20;99.90;;;;;;4924766;29;20482;-70
2023/02/25 02:37:39;;;;;;;2.30;1.57;;;5.30;99.90;;;;;;4960127;28;20482;-71
2023/02/25 02:40:14;;;;;;;2.60;1.57;;;5.30;99.90;;;;;;4933223;28;20988;-70
2023/02/25 02:42:57;;;;;;;8.93;1.30;;;5.20;99.90;;;;;;4922983;29;20467;-69
2023/02/25 02:45:42;;;;;;;2.53;1.80;;;5.40;99.90;;;;;;4932110;29;20469;-70
2023/02/25 02:48:19;;;;;;;3.13;1.23;;;5.40;99.90;;;;;;4928049;29;20517;-71
2023/02/25 02:50:50;;;;;;;2.47;1.43;;;5.30;99.90;;;;;;4929543;28;20471;-70
2023/02/25 02:53:38;;;;;;;2.67;1.10;;;5.30;99.90;;;;;;4919830;29;20448;-70
2023/02/25 02:56:07;;;;;;;1.80;1.20;;;5.30;99.90;;;;;;4918005;28;20514;-70
2023/02/25 02:58:45;;;;;;;5.07;1.30;;;5.10;99.90;;;;;;4920863;28;21079;-70
2023/02/25 03:01:12;;;;;;;3.57;1.30;;;5.00;99.90;;;;;;4921834;29;20475;-70
2023/02/25 03:03:43;;;;;;;2.10;1.33;;;5.10;99.90;;;;;;4930470;29;20852;-70
2023/02/25 03:06:20;;;;;;;5.70;2.00;;;5.10;99.90;;;;;;4925025;29;20859;-70
2023/02/25 03:08:54;;;;;;;1.53;1.37;;;5.20;99.90;;;;;;4928683;29;20875;-69
2023/02/25 03:11:21;;;;;;;2.30;1.30;;;5.30;99.90;;;;;;4937197;28;20475;-70
2023/02/25 03:13:46;;;;;;;6.03;1.70;;;5.40;99.90;;;;;;4929552;29;20532;-70
2023/02/25 03:16:35;;;;;;;5.23;1.70;;;5.20;99.90;;;;;;4917885;29;20521;-70
2023/02/25 03:19:07;;;;;;;7.80;1.60;;;5.10;99.90;;;;;;4924172;28;20473;-70
2023/02/25 03:21:45;;;;;;;3.40;1.20;;;5.10;99.90;;;;;;4923167;28;20466;-70
2023/02/25 03:24:21;;;;;;;2.93;1.40;;;5.20;99.90;;;;;;4929572;28;20468;-70
2023/02/25 03:26:49;;;;;;;2.50;1.27;;;5.10;99.90;;;;;;4937545;28;20499;-70
2023/02/25 03:29:18;;;;;;;4.53;1.60;;;5.10;99.90;;;;;;4919594;29;20542;-70
2023/02/25 03:31:56;;;;;;;3.80;1.13;;;5.20;99.90;;;;;;4916472;28;20490;-70
2023/02/25 03:34:37;;;;;;;1.80;1.13;;;5.20;99.90;;;;;;4926373;29;20462;-70
2023/02/25 03:37:08;;;;;;;3.27;1.50;;;5.30;99.90;;;;;;4937553;28;20513;-70
2023/02/25 03:39:40;;;;;;;2.13;1.00;;;5.40;99.90;;;;;;4909820;29;20480;-70
2023/02/25 03:42:11;;;;;;;3.13;1.40;;;5.20;99.90;;;;;;4916048;29;20459;-70
2023/02/25 03:44:50;;;;;;;1.43;1.03;;;5.30;99.90;;;;;;4919491;28;20486;-69
2023/02/25 03:47:18;;;;;;;1.60;1.10;;;5.40;99.90;;;;;;4909229;29;20855;-70
2023/02/25 03:50:07;;;;;;;3.37;1.17;;;5.40;99.90;;;;;;4944692;28;20457;-68
2023/02/25 03:52:34;;;;;;;6.93;1.80;;;5.50;99.90;;;;;;4921133;28;20458;-70
2023/02/25 03:55:03;;;;;;;3.17;0.90;;;5.50;99.90;;;;;;4945945;28;20482;-70
2023/02/25 03:57:41;;;;;;;4.57;1.80;;;5.40;99.90;;;;;;4938594;28;20575;-70
2023/02/25 04:00:33;;;;;;;2.93;1.40;;;5.30;99.90;;;;;;4928013;29;20476;-70
2023/02/25 04:02:59;;;;;;;1.80;1.40;;;5.40;99.90;;;;;;4929079;29;20456;-70
2023/02/25 04:05:26;;;;;;;8.43;1.60;;;5.20;99.90;;;;;;4932898;29;20451;-70
2023/02/25 04:07:53;;;;;;;4.07;1.17;;;5.20;99.90;;;;;;4921782;28;20466;-71
2023/02/25 04:10:19;;;;;;;2.80;1.10;;;5.20;99.90;;;;;;4930428;29;20478;-70
2023/02/25 04:12:46;;;;;;;6.80;1.40;;;5.40;99.90;;;;;;4914470;29;20465;-70
2023/02/25 04:15:15;;;;;;;1.77;1.33;;;5.30;99.90;;;;;;4914169;29;20226;-70
2023/02/25 04:17:40;;;;;;;2.20;1.40;;;5.40;99.90;;;;;;4913255;29;21056;-69
2023/02/25 04:20:07;;;;;;;5.30;1.67;;;5.50;99.90;;;;;;4930367;29;20547;-71
2023/02/25 04:22:34;;;;;;;7.60;1.10;;;5.50;99.90;;;;;;4923850;29;20321;-70
2023/02/25 04:24:59;;;;;;;1.70;1.00;;;5.50;99.90;;;;;;4931945;28;20494;-70
2023/02/25 04:27:26;;;;;;;1.37;1.10;;;5.40;99.90;;;;;;4922525;29;20509;-70
2023/02/25 04:29:51;;;;;;;3.13;1.60;;;5.40;99.90;;;;;;4917517;29;20231;-70
2023/02/25 04:32:17;;;;;;;2.63;1.30;;;5.40;99.90;;;;;;4927066;29;20557;-70
2023/02/25 04:34:43;;;;;;;1.43;1.33;;;5.40;99.90;;;;;;4929007;28;20211;-70
2023/02/25 04:37:09;;;;;;;2.50;1.30;;;5.40;99.90;;;;;;4926583;29;20770;-70
2023/02/25 04:39:35;;;;;;;2.83;1.43;;;5.50;99.90;;;;;;4927661;29;20329;-70
2023/02/25 04:42:01;;;;;;;2.60;1.57;;;5.30;99.90;;;;;;4918156;29;21006;-70
2023/02/25 04:44:26;;;;;;;1.70;1.50;;;5.30;99.90;;;;;;4921511;29;20534;-69
2023/02/25 04:46:52;;;;;;;2.07;1.70;;;5.40;99.90;;;;;;4931895;28;20820;-69
2023/02/25 04:49:20;;;;;;;5.60;1.57;;;5.20;99.90;;;;;;4931549;29;20214;-70
2023/02/25 04:51:48;;;;;;;3.90;1.40;;;5.20;99.90;;;;;;4933085;28;20218;-71
2023/02/25 04:54:14;;;;;;;2.30;1.40;;;5.10;99.90;;;;;;4928425;29;20471;-71
2023/02/25 04:56:39;;;;;;;2.60;1.60;;;5.10;99.90;;;;;;4939785;28;20532;-69
2023/02/25 04:59:06;;;;;;;3.20;1.70;;;5.20;99.90;;;;;;4925638;29;20479;-70
2023/02/25 05:01:32;;;;;;;2.17;1.80;;;5.20;99.90;;;;;;4917247;29;20223;-70
2023/02/25 05:03:59;;;;;;;2.73;1.70;;;5.30;99.90;;;;;;4923521;29;20475;-70
2023/02/25 05:06:26;;;;;;;2.60;1.57;;;5.20;99.90;;;;;;4930048;29;20724;-70
2023/02/25 05:08:53;;;;;;;7.53;1.77;;;5.20;99.90;;;;;;4916958;29;20856;-70
2023/02/25 05:11:20;;;;;;;3.67;2.13;;;5.20;99.90;;;;;;4930787;29;20467;-70
2023/02/25 05:13:46;;;;;;;3.00;2.03;;;5.10;99.90;;;;;;4932912;29;20469;-70
2023/02/25 05:16:17;;;;;;;5.53;2.40;;;5.00;99.90;;;;;;4952376;28;20462;-70
2023/02/25 05:18:45;;;;;;;2.90;2.00;;;5.10;99.90;;;;;;4942621;28;20223;-70
2023/02/25 05:21:16;;;;;;;3.80;2.17;;;5.10;99.90;;;;;;4918739;29;20454;-70
2023/02/25 05:23:43;;;;;;;5.23;2.07;;;5.20;99.90;;;;;;4931568;28;20465;-72
2023/02/25 05:26:10;;;;;;;2.23;1.67;;;5.10;99.90;;;;;;4923774;28;20466;-70
2023/02/25 05:28:39;;;;;;;8.00;1.80;;;5.10;99.90;;;;;;4928754;29;20467;-71
2023/02/25 05:31:06;;;;;;;2.70;1.80;;;5.00;99.90;;;;;;4926177;29;20996;-69
2023/02/25 05:33:32;;;;;;;6.70;1.77;;;5.00;99.90;;;;;;4924487;29;20541;-70
2023/02/25 05:35:58;;;;;;;4.00;2.50;;;4.90;99.90;;;;;;4932515;29;20545;-70
2023/02/25 05:38:24;;;;;;;2.50;1.87;;;4.80;99.90;;;;;;4928438;29;20541;-70
2023/02/25 05:40:50;;;;;;;5.17;1.60;;;4.70;99.90;;;;;;4916836;28;20224;-71
2023/02/25 05:43:16;;;;;;;13.50;2.50;;;4.60;99.90;;;;;;4926450;29;20894;-70
2023/02/25 05:45:42;;;;;;;2.87;1.87;;;4.50;99.90;;;;;;4919614;28;20215;-70
2023/02/25 05:48:07;;;;;;;6.00;2.10;;;4.40;99.90;;;;;;4921843;29;20236;-70
2023/02/25 05:50:40;;;;;;;3.60;2.37;;;4.50;99.90;;;;;;4930238;28;20222;-69
2023/02/25 05:53:06;;;;;;;4.93;1.93;;;4.40;99.90;;;;;;4934897;29;20218;-69
2023/02/25 05:55:32;;;;;;;2.70;1.60;;;4.30;99.90;;;;;;4925267;29;20534;-70
2023/02/25 05:57:58;;;;;;;2.03;1.20;;;4.40;99.90;;;;;;4924539;29;20479;-67
2023/02/25 06:00:23;;;;;;;2.00;1.20;;;4.40;99.90;;;;;;4944726;28;20226;-70
2023/02/25 06:02:49;;;;;;;8.60;2.10;;;4.30;99.90;;;;;;4931655;28;20282;-70
2023/02/25 06:05:16;;;;;;;3.50;1.87;;;4.20;99.90;;;;;;4918963;29;20227;-70
2023/02/25 06:07:42;;;;;;;7.03;1.70;;;4.20;99.90;;;;;;4915903;29;20251;-69
2023/02/25 06:10:08;;;;;;;4.90;1.70;;;4.30;99.90;;;;;;4934140;29;20905;-70
2023/02/25 06:12:35;;;;;;;2.67;1.73;;;4.20;99.90;;;;;;4933663;28;20218;-70
2023/02/25 06:15:01;;;;;;;2.90;2.30;;;4.20;99.90;;;;;;4913706;29;20541;-69
2023/02/25 06:17:26;;;;;;;8.53;3.30;;;4.30;99.90;;;;;;4931843;29;20889;-68
2023/02/25 06:19:52;;;;;;;8.13;2.67;;;4.40;99.90;;;;;;4931796;28;20267;-69
2023/02/25 06:22:19;;;;;;;3.03;2.30;;;4.40;99.90;;;;;;4911605;29;20226;-69
2023/02/25 06:24:45;;;;;;;5.00;2.50;;;4.40;99.90;;;;;;4918910;29;20638;-70
2023/02/25 06:27:12;;;;;;;5.47;2.67;;;4.50;99.90;;;;;;4926434;28;20486;-69
2023/02/25 06:29:40;;;;;;;3.03;2.47;;;4.50;99.90;;;;;;4926762;28;20477;-69
2023/02/25 06:32:13;;;;;;;3.30;2.00;;;4.50;99.90;;;;;;4932503;29;20483;-69
2023/02/25 06:34:39;;;;;;;5.53;2.23;;;4.60;99.90;;;;;;4943772;28;20501;-69
2023/02/25 06:37:05;;;;;;;4.03;1.97;;;4.50;99.90;;;;;;4926538;29;20470;-69
2023/02/25 06:39:31;;;;;;;5.83;1.90;;;4.30;99.90;;;;;;4933936;28;20602;-70
2023/02/25 06:41:57;;;;;;;2.73;1.87;;;4.10;99.90;;;;;;4932362;28;20457;-70
2023/02/25 06:44:23;;;;;;;6.13;1.90;;;4.10;99.90;;;;;;4933193;28;20478;-70
2023/02/25 06:46:50;;;;;;;11.60;2.30;;;4.20;99.90;;;;;;4928808;28;20237;-70
2023/02/25 06:49:17;;;;;;;3.30;1.80;;;4.30;99.90;;;;;;4915615;29;20534;-70
2023/02/25 06:51:43;;;;;;;2.97;2.00;;;4.30;99.90;;;;;;4921498;28;20459;-70
2023/02/25 06:54:09;;;;;;;4.73;1.77;;;4.30;99.90;;;;;;4947267;28;20499;-70
2023/02/25 06:56:34;;;;;;;7.70;2.57;;;4.30;99.90;;;;;;4904048;29;20222;-70
2023/02/25 06:59:00;;;;;;;7.90;2.70;;;4.40;99.90;;;;;;4926618;29;20275;-70
2023/02/25 07:01:26;;;;;;;3.13;1.83;;;4.40;99.90;;;;;;4927060;29;20572;-70
2023/02/25 07:03:52;;;;;;;5.13;1.50;;;4.40;99.90;;;;;;4920511;29;20223;-69
2023/02/25 07:06:18;;;;;;;4.70;1.80;;;4.40;99.90;;;;;;4911645;29;20231;-70
2023/02/25 07:08:45;;;;;;;4.50;2.00;;;4.50;99.90;;;;;;4903361;29;20216;-70
2023/02/25 07:11:25;;;;;;;2.17;1.60;;;4.30;99.90;;;;;;4926318;29;20562;-70
2023/02/25 07:13:51;;;;;;;2.77;2.10;;;4.20;99.90;;;;;;4925332;28;20454;-70
2023/02/25 07:16:17;;;;;;;8.17;2.30;;;4.10;99.90;;;;;;4927341;29;20494;-70
2023/02/25 07:18:43;;;;;;;3.60;1.87;;;4.10;99.90;;;;;;4923982;29;20227;-70
2023/02/25 07:21:11;;;;;;;5.27;2.50;;;4.20;99.90;;;;;;4923814;29;20467;-69
2023/02/25 07:23:37;;;;;;;7.23;1.70;;;4.20;99.90;;;;;;4931020;28;20743;-70
2023/02/25 07:26:08;;;;;;;3.83;1.87;;;4.20;99.90;;;;;;4939296;28;20455;-70
2023/02/25 07:28:34;;;;;;;2.90;1.60;;;4.30;99.90;;;;;;4939374;28;20464;-71
2023/02/25 07:31:10;;;;;;;6.10;1.80;;;4.30;99.90;;;;;;4921654;29;20484;-70
2023/02/25 07:33:35;;;;;;;3.33;2.00;;;4.40;99.90;;;;;;4932679;28;20585;-70
2023/02/25 07:36:01;;;;;;;1.90;1.57;;;4.50;99.90;;;;;;4927055;29;20493;-70
2023/02/25 07:38:26;;;;;;;5.87;2.40;;;4.60;99.90;;;;;;4915692;29;20245;-68
2023/02/25 07:40:52;;;;;;;6.80;1.77;;;4.60;99.90;;;;;;4940841;28;20230;-70
2023/02/25 07:43:18;;;;;;;4.47;2.00;;;4.60;99.90;;;;;;4915951;29;20220;-70
2023/02/25 07:45:43;;;;;;;4.03;2.10;;;4.60;99.90;;;;;;4916508;29;20234;-70
2023/02/25 07:48:09;;;;;;;3.40;2.33;;;4.60;99.90;;;;;;4926437;29;20234;-70
2023/02/25 07:50:35;;;;;;;6.33;2.43;;;4.50;99.90;;;;;;4915334;29;20223;-70
2023/02/25 07:53:01;;;;;;;3.57;2.17;;;4.40;99.90;;;;;;4928625;28;20250;-70
2023/02/25 07:55:26;;;;;;;3.30;2.27;;;4.40;99.90;;;;;;4919130;29;20240;-70
2023/02/25 07:57:52;;;;;;;3.90;2.10;;;4.50;99.90;;;;;;4920862;29;20624;-71
2023/02/25 08:00:18;;;;;;;2.77;1.87;;;4.60;99.90;;;;;;4925336;29;20225;-70
2023/02/25 08:02:44;;;;;;;4.00;2.10;;;4.80;99.90;;;;;;4926231;29;20230;-70
2023/02/25 08:05:10;;;;;;;7.60;2.60;;;4.90;99.90;;;;;;4927306;29;20226;-70
2023/02/25 08:07:36;;;;;;;2.83;1.63;;;4.90;99.90;;;;;;4910977;29;20843;-70
2023/02/25 08:10:03;;;;;;;4.73;2.10;;;4.90;99.90;;;;;;4905196;29;20525;-70
2023/02/25 08:12:28;;;;;;;4.53;2.23;;;5.00;99.90;;;;;;4927021;29;20940;-70
2023/02/25 08:14:56;;;;;;;5.17;1.70;;;5.20;99.90;;;;;;4933543;28;20538;-70
2023/02/25 08:17:21;;;;;;;4.27;1.90;;;5.20;99.90;;;;;;4923772;29;20227;-70
2023/02/25 08:19:47;;;;;;;3.60;1.87;;;5.30;99.90;;;;;;4937857;28;21045;-69
2023/02/25 08:22:13;;;;;;;3.20;2.20;;;5.40;99.90;;;;;;4930400;29;20227;-70
2023/02/25 08:24:38;;;;;;;1.90;1.53;;;5.40;99.90;;;;;;4909204;29;20273;-70
2023/02/25 08:27:07;;;;;;;4.23;1.80;;;5.40;99.90;;;;;;4940849;28;20590;-68
2023/02/25 08:29:35;;;;;;;7.23;2.83;;;5.40;99.90;;;;;;4926516;28;20251;-70
2023/02/25 08:32:00;;;;;;;2.63;2.10;;;5.50;99.90;;;;;;4923382;28;20904;-70
2023/02/25 08:34:26;;;;;;;3.10;2.10;;;5.50;99.90;;;;;;4936143;28;20471;-70
2023/02/25 08:36:52;;;;;;;6.00;4.00;;;5.60;99.90;;;;;;4922881;28;20645;-70
2023/02/25 08:39:17;;;;;;;4.33;2.70;;;5.70;99.90;;;;;;4926469;29;20614;-70
2023/02/25 08:41:43;;;;;;;3.20;2.10;;;5.80;99.90;;;;;;4951766;28;20233;-70
2023/02/25 08:44:10;;;;;;;6.60;2.40;;;5.90;99.90;;;;;;4928082;28;20226;-70
2023/02/25 08:46:36;;;;;;;3.20;1.90;;;5.80;99.90;;;;;;4927115;29;20553;-70
2023/02/25 08:49:04;;;;;;;3.10;2.20;;;5.80;99.90;;;;;;4916760;29;20489;-70
2023/02/25 08:51:33;;;;;;;2.53;1.87;;;5.80;99.90;;;;;;4932798;28;20470;-71
2023/02/25 08:54:05;;;;;;;2.67;1.80;;;5.80;99.90;;;;;;4923159;28;20466;-69
2023/02/25 08:56:32;;;;;;;3.80;1.50;;;5.80;99.90;;;;;;4923378;28;20466;-70
2023/02/25 08:58:58;;;;;;;3.10;1.37;;;5.90;99.90;;;;;;4914848;29;20478;-70
2023/02/25 09:01:24;;;;;;;1.50;1.40;;;5.90;99.90;;;;;;4922920;29;20503;-70
2023/02/25 09:03:52;;;;;;;4.07;1.53;;;5.90;99.90;;;;;;4940996;28;20467;-70
2023/02/25 09:06:21;;;;;;;4.50;1.37;;;5.90;99.90;;;;;;4927953;29;20219;-72
2023/02/25 09:08:47;;;;;;;8.50;2.27;;;6.00;99.90;;;;;;4922191;28;20872;-69
2023/02/25 09:11:13;;;;;;;7.70;2.40;;;6.10;99.90;;;;;;4930086;28;20477;-70
2023/02/25 09:13:39;;;;;;;9.07;3.03;;;6.10;99.90;;;;;;4912965;29;20509;-71
2023/02/25 09:16:05;;;;;;;3.37;1.93;;;6.10;99.90;;;;;;4930826;28;20482;-71
2023/02/25 09:18:30;;;;;;;3.70;1.80;;;6.20;99.90;;;;;;4942599;28;20224;-71
2023/02/25 09:20:57;;;;;;;3.03;2.27;;;6.30;99.90;;;;;;4948425;28;20467;-70
2023/02/25 09:23:22;;;;;;;4.00;1.70;;;6.20;99.90;;;;;;4935046;29;20223;-70
2023/02/25 09:25:48;;;;;;;7.00;2.27;;;6.20;99.90;;;;;;4901468;29;20471;-70
2023/02/25 09:28:14;;;;;;;1.83;1.50;;;6.20;99.90;;;;;;4928040;29;20235;-70
2023/02/25 09:30:43;;;;;;;2.67;2.07;;;6.20;99.90;;;;;;4917816;29;20467;-69
2023/02/25 09:33:08;;;;;;;4.03;1.53;;;6.20;99.90;;;;;;4937697;28;20250;-70
2023/02/25 09:35:34;;;;;;;2.70;1.70;;;6.10;99.90;;;;;;4923014;28;20990;-70
2023/02/25 09:38:00;;;;;;;5.17;2.10;;;6.10;99.90;;;;;;4908324;29;20325;-69
2023/02/25 09:40:25;;;;;;;5.20;1.90;;;6.20;99.90;;;;;;4929323;28;20223;-70
2023/02/25 09:43:18;;;;;;;3.73;2.20;;;6.20;99.90;;;;;;4925863;28;20242;-70
2023/02/25 09:45:46;;;;;;;6.43;2.90;;;6.20;99.90;;;;;;4904389;28;20238;-70
2023/02/25 09:48:22;;;;;;;4.10;2.20;;;6.30;99.90;;;;;;4926557;29;20519;-70
2023/02/25 09:50:50;;;;;;;5.00;2.30;;;6.30;99.90;;;;;;4918496;28;20489;-70
2023/02/25 09:53:34;;;;;;;2.53;1.73;;;6.40;99.90;;;;;;4928630;29;20480;-70
2023/02/25 09:56:01;;;;;;;2.60;1.63;;;6.40;99.90;;;;;;4921871;29;20470;-69
2023/02/25 09:58:44;;;;;;;5.33;1.93;;;6.40;99.90;;;;;;4927242;29;20549;-69
2023/02/25 10:01:10;;;;;;;6.43;2.27;;;6.50;99.90;;;;;;4930877;29;20487;-69
2023/02/25 10:03:45;;;;;;;7.90;3.70;;;6.50;99.90;;;;;;4923775;29;20456;-70
2023/02/25 10:06:21;;;;;;;20.97;8.40;;;6.60;99.90;;;;;;4929257;29;20222;-70
2023/02/25 10:08:54;;;;;;;13.50;7.80;;;6.70;99.90;;;;;;4911590;29;20475;-69
2023/02/25 10:11:33;;;;;;;17.40;6.13;;;6.80;99.90;;;;;;4939705;28;21012;-70
2023/02/25 10:14:26;;;;;;;11.63;5.53;;;6.80;99.90;;;;;;4921905;28;20472;-69
2023/02/25 10:17:30;;;;;;;13.80;7.17;;;6.80;99.90;;;;;;4930085;28;20483;-70
2023/02/25 10:20:31;;;;;;;11.23;4.20;;;7.00;99.90;;;;;;4921237;29;20462;-70
2023/02/25 10:23:03;;;;;;;5.07;2.70;;;7.00;99.90;;;;;;4929375;28;20464;-69
2023/02/25 10:25:35;;;;;;;5.40;2.00;;;7.20;99.90;;;;;;4928276;29;20815;-70
2023/02/25 10:28:06;;;;;;;6.90;3.00;;;7.40;99.90;;;;;;4922429;29;20550;-69
2023/02/25 10:30:58;;;;;;;7.00;1.90;;;7.40;99.90;;;;;;4911142;28;20471;-70
2023/02/25 10:33:25;;;;;;;3.70;2.00;;;7.40;99.90;;;;;;4926983;29;20471;-70
2023/02/25 10:35:58;;;;;;;9.23;2.17;;;7.80;99.90;;;;;;4913043;28;20458;-70
2023/02/25 10:38:24;;;;;;;3.00;1.77;;;7.60;99.90;;;;;;4942526;28;20477;-70
2023/02/25 10:40:54;;;;;;;6.83;2.20;;;7.40;99.90;;;;;;4922211;28;20501;-68
2023/02/25 10:43:25;;;;;;;1.50;1.40;;;7.70;99.90;;;;;;4931087;29;20728;-71
2023/02/25 10:46:03;;;;;;;3.57;2.00;;;7.90;99.90;;;;;;4915238;29;20567;-69
2023/02/25 10:48:30;;;;;;;2.10;1.40;;;8.10;99.90;;;;;;4923003;29;20831;-69
2023/02/25 10:51:05;;;;;;;8.50;1.73;;;8.00;99.90;;;;;;4924213;28;20471;-69
2023/02/25 10:53:32;;;;;;;8.13;1.87;;;8.40;99.90;;;;;;4913701;29;20595;-70
2023/02/25 10:55:59;;;;;;;4.93;1.27;;;8.60;99.90;;;;;;4927911;29;20468;-69
2023/02/25 10:58:37;;;;;;;2.40;0.83;;;8.70;99.90;;;;;;4923934;29;20455;-70
2023/02/25 11:01:17;;;;;;;3.80;1.50;;;8.30;99.90;;;;;;4924696;28;20495;-70
2023/02/25 11:03:42;;;;;;;8.07;1.93;;;8.40;99.90;;;;;;4923487;28;20510;-71
2023/02/25 11:06:18;;;;;;;5.30;1.30;;;8.10;99.90;;;;;;4925840;28;20951;-69
2023/02/25 11:08:43;;;;;;;2.23;0.93;;;8.30;99.90;;;;;;4925201;28;20264;-71
2023/02/25 11:11:14;;;;;;;1.00;0.97;;;8.10;99.90;;;;;;4944462;28;20480;-71
2023/02/25 11:13:40;;;;;;;1.90;0.90;;;8.00;99.90;;;;;;4924006;29;20311;-71
2023/02/25 11:16:11;;;;;;;1.70;1.20;;;8.40;99.90;;;;;;4930300;29;20969;-71
2023/02/25 11:18:38;;;;;;;3.20;1.00;;;8.00;99.90;;;;;;4924892;28;20354;-71
2023/02/25 11:21:06;;;;;;;6.43;1.53;;;8.40;99.90;;;;;;4926982;29;20475;-69
2023/02/25 11:23:37;;;;;;;6.70;1.20;;;8.40;99.90;;;;;;4928796;28;21004;-70
2023/02/25 11:26:05;;;;;;;5.47;1.47;;;8.10;99.90;;;;;;4919201;28;20490;-70
2023/02/25 11:28:34;;;;;;;4.33;1.27;;;8.30;99.90;;;;;;4924460;28;20491;-71
2023/02/25 11:31:09;;;;;;;3.33;1.77;;;8.80;99.90;;;;;;4928006;29;20868;-68
2023/02/25 11:33:38;;;;;;;2.00;1.20;;;8.40;99.90;;;;;;4925297;28;20553;-70
2023/02/25 11:36:06;;;;;;;2.27;1.83;;;8.10;99.90;;;;;;4922853;28;20467;-69
2023/02/25 11:38:44;;;;;;;3.00;2.10;;;8.40;99.90;;;;;;4901260;28;20471;-71
2023/02/25 11:41:20;;;;;;;10.60;2.80;;;8.70;99.90;;;;;;4942133;28;20853;-70
2023/02/25 11:43:47;;;;;;;7.97;2.57;;;8.90;99.90;;;;;;4915326;29;20474;-70
2023/02/25 11:46:23;;;;;;;5.13;2.60;;;8.60;99.90;;;;;;4929537;29;20471;-70
2023/02/25 11:49:12;;;;;;;1.90;1.70;;;8.80;99.90;;;;;;4922923;29;20479;-71
2023/02/25 11:51:50;;;;;;;2.20;2.00;;;8.90;99.90;;;;;;4919748;28;20486;-71
2023/02/25 11:54:34;;;;;;;5.60;1.87;;;9.10;99.90;;;;;;4926960;29;20499;-69
2023/02/25 11:57:36;;;;;;;3.83;1.30;;;9.20;99.90;;;;;;4924955;29;20611;-68
2023/02/25 12:00:11;;;;;;;3.23;1.77;;;9.30;99.90;;;;;;4921469;29;20549;-69
2023/02/25 12:03:11;;;;;;;4.30;1.63;;;9.20;99.90;;;;;;4928921;28;20473;-68
2023/02/25 12:05:43;;;;;;;6.30;1.60;;;9.10;99.90;;;;;;4920597;28;20475;-69
2023/02/25 12:08:14;;;;;;;3.60;1.50;;;9.10;99.90;;;;;;4939652;28;20522;-69
2023/02/25 12:11:18;;;;;;;6.43;1.63;;;8.40;99.90;;;;;;4925745;29;20515;-70
2023/02/25 12:14:11;;;;;;;1.60;1.50;;;8.00;99.90;;;;;;4915313;29;20467;-70
2023/02/25 12:16:50;;;;;;;2.67;1.33;;;7.80;99.90;;;;;;4927951;28;20455;-69
2023/02/25 12:19:46;;;;;;;4.63;1.27;;;7.80;99.90;;;;;;4920262;29;20595;-69
2023/02/25 12:22:51;;;;;;;3.83;1.97;;;7.60;99.90;;;;;;4941188;28;20509;-69
2023/02/25 12:25:25;;;;;;;9.33;2.37;;;7.50;99.90;;;;;;4829734;29;20507;-69
2023/02/25 12:27:56;;;;;;;2.63;1.70;;;7.40;99.90;;;;;;4869176;29;20460;-69
2023/02/25 12:30:49;;;;;;;2.20;1.83;;;7.50;99.90;;;;;;4892740;29;20532;-70
2023/02/25 12:33:36;;;;;;;6.50;1.20;;;7.50;99.90;;;;;;4922540;28;20537;-70
2023/02/25 12:36:30;;;;;;;3.97;1.20;;;7.40;99.90;;;;;;4926030;28;20578;-69
2023/02/25 12:39:14;;;;;;;7.43;1.60;;;7.40;99.90;;;;;;4923747;29;20463;-70
2023/02/25 12:42:27;;;;;;;1.83;1.30;;;7.50;99.90;;;;;;4916743;29;20467;-70
2023/02/25 12:45:28;;;;;;;2.30;1.33;;;7.50;99.90;;;;;;4904711;29;20447;-69
2023/02/25 12:48:21;;;;;;;5.30;1.90;;;7.40;99.90;;;;;;4918241;28;20857;-69
2023/02/25 12:51:14;;;;;;;1.17;0.97;;;7.50;99.90;;;;;;4911331;29;20521;-69
2023/02/25 12:53:54;;;;;;;3.33;1.40;;;7.50;99.90;;;;;;4921372;28;20479;-68
2023/02/25 12:56:37;;;;;;;2.40;1.13;;;7.70;99.90;;;;;;4918359;28;20475;-71
2023/02/25 12:59:17;;;;;;;3.87;1.30;;;7.70;99.90;;;;;;4939572;28;20470;-70
2023/02/25 13:02:07;;;;;;;1.33;0.80;;;8.00;99.90;;;;;;4914745;28;20546;-69
2023/02/25 13:05:00;;;;;;;1.73;0.60;;;7.60;99.90;;;;;;4926922;29;20471;-69
2023/02/25 13:08:12;;;;;;;2.00;1.13;;;7.30;99.90;;;;;;4917550;29;21001;-70
2023/02/25 13:10:59;;;;;;;1.07;0.70;;;7.50;99.90;;;;;;4918043;28;20495;-70
2023/02/25 13:13:47;;;;;;;2.10;1.00;;;7.30;99.90;;;;;;4940277;28;20466;-69
2023/02/25 13:16:24;;;;;;;2.30;0.70;;;7.50;99.90;;;;;;4926913;28;20467;-69
2023/02/25 13:19:05;;;;;;;9.23;4.83;;;7.50;99.90;;;;;;4919470;29;21011;-68